Prévisions Luxembourg

Information turbulence / givrage (en pieds (ft) AMSL)

Turbulence: No significant turbulence in the lower atmosphere. / Givrage: Light icing possible between FZLVL and FL100.

Situation météorologique

Du brouillard (givrant) tout comme de la brume domineront à beaucoup d'endroits en matinée. Ailleurs, le ciel sera nuageux à peu nuageux. La nébulosité en basses couches atmosphériques diminuera jusqu'en fin de matinée. Le temps restera sec. Du brouillard réapparaîtra localement en deuxième partie de la nuit à jeudi.

Prévisions d'aérodrome courtes LAF

LAF ELLX 280800Z 2809/2818 02005KT 1200 BR OVC003 TEMPO 2809/2810 0100 FG VV001 BECMG 2810/2812 27010KT 9999 SCT040=

Prévisions d'aérodrome TAF

TAF AMD ELLX 280700Z 2807/2912 02005KT 1200 BR OVC003 TEMPO 2807/2809 0100 FG VV001 BECMG 2809/2812 27010KT 9999 SCT040 PROB40 2900/2910 20005KT 0200 FG VV002=

Température maximale

7 à 9°C

Température minimale

-1 à 1°C

Altitude du 0°C (FL ou ft AMSL)

Around 4.500 ft AMSL.

Convection

Weak convection forecast, particularly after 12:00 UTC.

Inversion (ft AMSL)

Ground (1,234 ft AMSL) - 2,000 ft AMSL until 12:00 UTC.

Vents en altitude (direction en degré (°) et force en noeuds (kt))
09:00 TU 12:00 TU 15:00 TU 18:00 TU 21:00 TU 00:00 TU 03:00 TU 06:00 TU
10.000 ft 345° 8 320° 5 305° 7 290° 8 275° 9 235° 7 245° 9 220° 11
5.000 ft 345° 3 60° 0 230° 6 265° 10 240° 7 245° 12 230° 13 230° 13
2.500 ft 250° 3 255° 5 255° 7 185° 8 205° 14 210° 17 225° 18 225° 17
1.500 ft 245° 0 280° 5 245° 5 215° 7 210° 12 205 16 220° 17 220° 16
Au sol 045° 5 020° 5 225° 5 200° 5 225° 5 200° 5 200° 5 225° 5
Rafales au sol

Bulletins de prévisions aéronautiques

Consultez nos bulletins au format PDF ou abonnez-vous pour recevoir les bulletins par email.

Produits du domaine de la météorologie aéronautique

Inscrivez-vous gratuitement au site MeteoLux et accédez à la rubrique « Mes produits » vous offrant de multiples avantages :

  • Cartes du temps significatif EUROC
  • Cartes du temps significatif Belgique et Luxembourg